createdAt,value
2019-01-06T00:00:42.326Z,3.87
2019-01-06T00:03:40.435Z,2.93
2019-01-06T00:06:44.965Z,3.67
2019-01-06T00:09:34.285Z,4.07
2019-01-06T00:12:32.627Z,4.10
2019-01-06T00:15:28.141Z,3.90
2019-01-06T00:18:16.114Z,3.30
2019-01-06T00:21:17.638Z,3.87
2019-01-06T00:24:17.219Z,3.50
2019-01-06T00:27:13.694Z,3.80
2019-01-06T00:30:12.074Z,4.07
2019-01-06T00:32:53.931Z,3.70
2019-01-06T00:36:01.814Z,3.67
2019-01-06T00:38:43.162Z,4.00
2019-01-06T00:41:41.458Z,3.87
2019-01-06T00:44:30.726Z,3.67
2019-01-06T00:47:18.020Z,3.70
2019-01-06T00:50:16.379Z,3.87
2019-01-06T00:53:08.748Z,3.90
2019-01-06T00:55:54.790Z,3.97
2019-01-06T00:58:50.131Z,3.90
2019-01-06T01:01:38.232Z,3.67
2019-01-06T01:04:33.607Z,3.60
2019-01-06T01:07:22.950Z,4.60
2019-01-06T01:10:10.886Z,5.67
2019-01-06T01:12:52.748Z,5.80
2019-01-06T01:15:41.996Z,6.53
2019-01-06T01:18:40.143Z,5.93
2019-01-06T01:21:27.999Z,5.77
2019-01-06T01:24:16.018Z,5.83
2019-01-06T01:27:03.827Z,6.07
2019-01-06T01:29:52.140Z,5.27
2019-01-06T01:32:50.750Z,4.93
2019-01-06T01:35:38.874Z,5.50
2019-01-06T01:38:27.316Z,5.73
2019-01-06T01:41:16.778Z,6.13
2019-01-06T01:44:09.090Z,5.97
2019-01-06T01:46:56.998Z,5.80
2019-01-06T01:49:48.956Z,5.20
2019-01-06T01:52:34.923Z,5.93
2019-01-06T01:55:30.746Z,5.93
2019-01-06T01:58:24.534Z,5.27
2019-01-06T02:01:20.361Z,5.60
2019-01-06T02:04:08.712Z,6.63
2019-01-06T02:06:57.039Z,5.63
2019-01-06T02:09:46.226Z,5.63
2019-01-06T02:12:41.693Z,5.60
2019-01-06T02:15:35.679Z,5.90
2019-01-06T02:18:23.972Z,5.73
2019-01-06T02:21:11.831Z,6.27
2019-01-06T02:24:04.175Z,4.33
2019-01-06T02:26:52.409Z,6.17
2019-01-06T02:29:56.621Z,6.40
2019-01-06T02:32:44.650Z,5.40
2019-01-06T02:35:46.035Z,6.27
2019-01-06T02:38:35.443Z,5.60
2019-01-06T02:41:23.809Z,5.77
2019-01-06T02:44:07.827Z,6.03
2019-01-06T02:47:00.290Z,5.17
2019-01-06T02:50:01.947Z,5.03
2019-01-06T02:52:57.365Z,5.63
2019-01-06T02:55:58.670Z,5.33
2019-01-06T02:58:47.944Z,4.90
2019-01-06T03:01:34.428Z,4.97
2019-01-06T03:04:26.464Z,4.53
2019-01-06T03:07:15.891Z,4.30
2019-01-06T03:10:05.352Z,4.77
2019-01-06T03:12:58.031Z,4.40
2019-01-06T03:15:46.027Z,3.87
2019-01-06T03:18:43.501Z,5.00
2019-01-06T03:21:29.481Z,4.40
2019-01-06T03:24:30.788Z,4.40
2019-01-06T03:27:23.007Z,4.20
2019-01-06T03:30:02.643Z,3.87
2019-01-06T03:32:57.008Z,4.17
2019-01-06T03:35:41.384Z,4.30
2019-01-06T03:38:29.653Z,4.33
2019-01-06T03:41:17.783Z,4.10
2019-01-06T03:44:10.733Z,4.17
2019-01-06T03:47:03.097Z,3.27
2019-01-06T03:49:53.554Z,3.97
2019-01-06T03:52:48.618Z,3.90
2019-01-06T03:55:44.919Z,3.17
2019-01-06T03:58:33.225Z,3.23
2019-01-06T04:01:13.017Z,3.83
2019-01-06T04:04:01.003Z,3.70
2019-01-06T04:06:49.223Z,3.53
2019-01-06T04:09:36.923Z,3.47
2019-01-06T04:12:25.873Z,3.37
2019-01-06T04:15:18.064Z,3.50
2019-01-06T04:18:22.561Z,2.90
2019-01-06T04:21:14.643Z,3.23
2019-01-06T04:24:02.846Z,3.27
2019-01-06T04:26:47.288Z,3.10
2019-01-06T04:29:39.622Z,3.13
2019-01-06T04:32:28.886Z,3.27
2019-01-06T04:35:22.082Z,3.83
2019-01-06T04:38:10.251Z,3.43
2019-01-06T04:41:11.819Z,3.60
2019-01-06T04:44:10.036Z,4.13
2019-01-06T04:47:11.348Z,3.73
2019-01-06T04:49:59.346Z,3.57
2019-01-06T04:52:55.527Z,4.03
2019-01-06T04:55:43.414Z,3.37
2019-01-06T04:58:35.683Z,3.30
2019-01-06T05:01:23.580Z,3.80
2019-01-06T05:04:05.172Z,3.90
2019-01-06T05:07:03.284Z,3.27
2019-01-06T05:10:10.676Z,3.83
2019-01-06T05:12:51.984Z,3.30
2019-01-06T05:15:40.000Z,3.37
2019-01-06T05:18:41.943Z,3.13
2019-01-06T05:21:30.010Z,3.77
2019-01-06T05:24:22.141Z,3.43
2019-01-06T05:27:10.038Z,3.70
2019-01-06T05:30:02.190Z,3.90
2019-01-06T05:32:50.668Z,3.67
2019-01-06T05:35:38.626Z,4.40
2019-01-06T05:38:25.344Z,3.40
2019-01-06T05:41:09.680Z,4.10
2019-01-06T05:43:57.771Z,3.80
2019-01-06T05:46:54.319Z,4.17
2019-01-06T05:49:55.296Z,3.70
2019-01-06T05:52:43.307Z,3.30
2019-01-06T05:55:50.693Z,3.40
2019-01-06T05:58:57.942Z,3.10
2019-01-06T06:01:49.816Z,2.80
2019-01-06T06:04:38.268Z,2.73
2019-01-06T06:07:26.358Z,2.50
2019-01-06T06:10:18.749Z,2.60
2019-01-06T06:13:17.018Z,2.50
2019-01-06T06:16:04.997Z,2.60
2019-01-06T06:18:42.974Z,2.90
2019-01-06T06:21:47.579Z,2.40
2019-01-06T06:24:35.661Z,2.17
2019-01-06T06:27:30.385Z,2.50
2019-01-06T06:30:25.808Z,2.83
2019-01-06T06:33:24.184Z,2.80
2019-01-06T06:36:19.381Z,2.63
2019-01-06T06:39:06.737Z,2.73
2019-01-06T06:41:59.041Z,2.60
2019-01-06T06:45:00.373Z,2.83
2019-01-06T06:47:55.669Z,2.50
2019-01-06T06:50:45.005Z,2.57
2019-01-06T06:53:43.361Z,2.60
2019-01-06T06:56:35.375Z,2.43
2019-01-06T06:59:33.795Z,2.50
2019-01-06T07:02:53.007Z,3.00
2019-01-06T07:05:34.505Z,2.70
2019-01-06T07:08:23.743Z,2.90
2019-01-06T07:11:19.107Z,2.40
2019-01-06T07:14:14.641Z,2.90
2019-01-06T07:17:38.551Z,2.90
2019-01-06T07:20:30.795Z,2.70
2019-01-06T07:23:18.875Z,3.43
2019-01-06T07:26:20.330Z,3.80
2019-01-06T07:29:22.861Z,3.70
2019-01-06T07:32:12.134Z,3.50
2019-01-06T07:35:01.357Z,3.43
2019-01-06T07:38:02.705Z,3.33
2019-01-06T07:40:51.998Z,3.60
2019-01-06T07:43:46.223Z,3.70
2019-01-06T07:46:41.374Z,3.27
2019-01-06T07:49:37.452Z,3.70
2019-01-06T07:52:18.529Z,3.80
2019-01-06T07:55:07.871Z,3.57
2019-01-06T07:58:03.788Z,3.60
2019-01-06T08:01:02.124Z,3.73
2019-01-06T08:03:57.371Z,3.50
2019-01-06T08:06:45.461Z,4.10
2019-01-06T08:09:28.341Z,3.80
2019-01-06T08:12:17.732Z,4.60
2019-01-06T08:15:05.858Z,3.87
2019-01-06T08:17:54.607Z,4.20
2019-01-06T08:20:38.762Z,4.00
2019-01-06T08:23:43.356Z,4.63
2019-01-06T08:26:39.027Z,4.27
2019-01-06T08:29:43.758Z,4.30
2019-01-06T08:32:35.834Z,4.17
2019-01-06T08:35:24.185Z,4.90
2019-01-06T08:38:12.166Z,4.80
2019-01-06T08:41:19.642Z,4.80
2019-01-06T08:44:14.751Z,5.00
2019-01-06T08:47:02.691Z,4.73
2019-01-06T08:49:55.079Z,4.73
2019-01-06T08:52:56.967Z,5.23
2019-01-06T08:55:52.162Z,5.23
2019-01-06T08:58:37.244Z,4.90
2019-01-06T09:01:25.104Z,4.93
2019-01-06T09:04:15.054Z,5.53
2019-01-06T09:07:07.864Z,5.47
2019-01-06T09:10:06.161Z,5.80
2019-01-06T09:13:00.154Z,5.93
2019-01-06T09:16:01.748Z,6.30
2019-01-06T09:18:51.113Z,5.40
2019-01-06T09:21:39.254Z,5.80
2019-01-06T09:24:26.544Z,5.97
2019-01-06T09:27:24.948Z,4.87
2019-01-06T09:30:18.419Z,6.70
2019-01-06T09:33:04.498Z,6.47
2019-01-06T09:35:52.070Z,6.90
2019-01-06T09:38:41.786Z,7.10
2019-01-06T09:41:29.248Z,6.70
2019-01-06T09:44:16.562Z,6.80
2019-01-06T09:47:20.986Z,6.20
2019-01-06T09:50:09.115Z,6.10
2019-01-06T09:52:53.143Z,5.67
2019-01-06T09:55:45.352Z,5.57
2019-01-06T09:58:52.644Z,5.00
2019-01-06T10:01:45.960Z,6.20
2019-01-06T10:04:40.654Z,4.60
2019-01-06T10:07:25.694Z,6.03
2019-01-06T10:10:13.430Z,5.17
2019-01-06T10:13:15.654Z,4.40
2019-01-06T10:16:03.821Z,6.00
2019-01-06T10:19:01.456Z,4.23
2019-01-06T10:22:09.153Z,4.60
2019-01-06T10:25:11.414Z,4.50
2019-01-06T10:27:56.413Z,3.70
2019-01-06T10:30:45.586Z,4.10
2019-01-06T10:33:37.257Z,4.30
2019-01-06T10:36:19.733Z,4.03
2019-01-06T10:39:17.293Z,3.70
2019-01-06T10:42:16.430Z,4.20
2019-01-06T10:45:04.594Z,3.60
2019-01-06T10:47:53.797Z,4.93
2019-01-06T10:50:52.476Z,4.17
2019-01-06T10:53:40.075Z,3.60
2019-01-06T10:56:29.312Z,3.70
2019-01-06T10:59:21.321Z,3.93
2019-01-06T11:02:19.581Z,4.70
2019-01-06T11:05:06.616Z,5.23
2019-01-06T11:07:55.881Z,5.00
2019-01-06T11:10:56.375Z,4.67
2019-01-06T11:13:35.925Z,5.07
2019-01-06T11:16:23.981Z,4.20
2019-01-06T11:19:25.139Z,4.90
2019-01-06T11:22:13.119Z,4.50
2019-01-06T11:25:01.301Z,4.50
2019-01-06T11:28:00.524Z,3.73
2019-01-06T11:30:49.519Z,4.37
2019-01-06T11:33:37.829Z,5.00
2019-01-06T11:36:35.742Z,4.70
2019-01-06T11:39:25.165Z,5.10
2019-01-06T11:42:07.106Z,4.83
2019-01-06T11:44:56.460Z,4.43
2019-01-06T11:47:46.913Z,4.00
2019-01-06T11:50:38.981Z,3.90
2019-01-06T11:53:40.347Z,3.87
2019-01-06T11:56:30.595Z,3.17
2019-01-06T11:59:22.533Z,3.73
2019-01-06T12:02:27.030Z,3.40
2019-01-06T12:05:25.252Z,3.73
2019-01-06T12:08:23.438Z,3.47
2019-01-06T12:11:19.062Z,3.80
2019-01-06T12:14:01.882Z,3.97
2019-01-06T12:16:58.984Z,4.10
2019-01-06T12:19:46.704Z,4.30
2019-01-06T12:22:34.754Z,4.00
2019-01-06T12:25:30.734Z,4.77
2019-01-06T12:28:19.070Z,4.30
2019-01-06T12:31:05.667Z,5.20
2019-01-06T12:33:54.684Z,5.10
2019-01-06T12:36:42.896Z,3.43
2019-01-06T12:39:31.942Z,3.87
2019-01-06T12:42:27.166Z,4.20
2019-01-06T12:45:16.839Z,4.17
2019-01-06T12:48:15.214Z,4.00
2019-01-06T12:51:10.839Z,3.93
2019-01-06T12:54:12.488Z,3.63
2019-01-06T12:57:14.692Z,4.57
2019-01-06T13:00:19.264Z,3.53
2019-01-06T13:03:07.506Z,3.60
2019-01-06T13:05:59.691Z,3.83
2019-01-06T13:08:47.875Z,3.90
2019-01-06T13:11:37.160Z,3.80
2019-01-06T13:14:26.518Z,4.10
2019-01-06T13:17:24.916Z,4.40
2019-01-06T13:20:13.148Z,6.27
2019-01-06T13:23:01.135Z,4.77
2019-01-06T13:25:54.686Z,4.70
2019-01-06T13:29:02.397Z,4.93
2019-01-06T13:31:57.650Z,3.93
2019-01-06T13:35:01.806Z,4.93
2019-01-06T13:37:55.888Z,4.60
2019-01-06T13:40:38.179Z,5.83
2019-01-06T13:43:20.761Z,5.70
2019-01-06T13:46:08.823Z,4.53
2019-01-06T13:49:00.963Z,4.43
2019-01-06T13:51:53.302Z,5.40
2019-01-06T13:54:41.342Z,6.17
2019-01-06T13:57:29.550Z,4.10
2019-01-06T14:00:25.306Z,4.10
2019-01-06T14:03:17.205Z,3.80
2019-01-06T14:05:58.266Z,4.40
2019-01-06T14:08:50.502Z,4.40
2019-01-06T14:11:45.835Z,4.10
2019-01-06T14:14:50.345Z,3.87
2019-01-06T14:17:42.401Z,4.47
2019-01-06T14:20:25.575Z,4.33
2019-01-06T14:23:14.871Z,4.10
2019-01-06T14:26:22.773Z,4.67
2019-01-06T14:29:21.168Z,4.67
2019-01-06T14:32:14.143Z,3.80
2019-01-06T14:35:00.816Z,3.90
2019-01-06T14:38:08.397Z,4.67
2019-01-06T14:40:57.801Z,4.70
2019-01-06T14:43:56.815Z,4.43
2019-01-06T14:46:51.965Z,3.97
2019-01-06T14:49:54.358Z,4.70
2019-01-06T14:52:56.179Z,4.43
2019-01-06T14:55:50.705Z,4.73
2019-01-06T14:58:35.093Z,5.53
2019-01-06T15:01:30.195Z,4.57
2019-01-06T15:04:26.147Z,5.80
2019-01-06T15:07:18.309Z,5.37
2019-01-06T15:10:06.517Z,5.37
2019-01-06T15:12:54.572Z,5.70
2019-01-06T15:15:42.599Z,5.03
2019-01-06T15:18:34.763Z,5.70
2019-01-06T15:21:18.449Z,5.43
2019-01-06T15:24:23.159Z,5.63
2019-01-06T15:27:16.624Z,6.13
2019-01-06T15:30:18.119Z,5.80
2019-01-06T15:33:02.590Z,6.60
2019-01-06T15:35:51.756Z,6.03
2019-01-06T15:38:40.810Z,5.90
2019-01-06T15:41:35.520Z,5.90
2019-01-06T15:44:30.438Z,6.57
2019-01-06T15:47:22.568Z,6.00
2019-01-06T15:50:24.050Z,6.33
2019-01-06T15:53:12.312Z,6.47
2019-01-06T15:56:00.106Z,5.40
2019-01-06T15:58:48.357Z,6.43
2019-01-06T16:01:40.422Z,5.83
2019-01-06T16:04:33.114Z,6.10
2019-01-06T16:07:15.919Z,6.60
2019-01-06T16:10:05.354Z,6.37
2019-01-06T16:12:54.530Z,5.90
2019-01-06T16:15:42.736Z,5.70
2019-01-06T16:18:38.116Z,5.93
2019-01-06T16:21:28.907Z,6.07
2019-01-06T16:24:13.674Z,5.83
2019-01-06T16:27:11.778Z,5.50
2019-01-06T16:30:03.928Z,5.87
2019-01-06T16:32:56.696Z,5.73
2019-01-06T16:35:45.998Z,5.80
2019-01-06T16:38:33.839Z,6.00
2019-01-06T16:41:25.938Z,6.20
2019-01-06T16:44:17.961Z,6.27
2019-01-06T16:47:14.890Z,6.80
2019-01-06T16:50:07.310Z,6.33
2019-01-06T16:52:56.966Z,6.90
2019-01-06T16:55:35.424Z,6.30
2019-01-06T16:58:34.028Z,6.87
2019-01-06T17:01:32.252Z,6.63
2019-01-06T17:04:21.880Z,7.23
2019-01-06T17:07:11.100Z,6.60
2019-01-06T17:09:59.201Z,7.10
2019-01-06T17:12:54.760Z,6.63
2019-01-06T17:15:42.656Z,6.77
2019-01-06T17:18:24.795Z,6.90
2019-01-06T17:21:12.896Z,7.20
2019-01-06T17:24:11.003Z,7.10
2019-01-06T17:26:52.882Z,7.37
2019-01-06T17:29:45.085Z,6.90
2019-01-06T17:32:34.580Z,7.00
2019-01-06T17:35:27.614Z,7.50
2019-01-06T17:38:13.051Z,8.20
2019-01-06T17:41:02.695Z,8.00
2019-01-06T17:43:46.332Z,8.30
2019-01-06T17:46:24.874Z,8.50
2019-01-06T17:49:22.624Z,9.47
2019-01-06T17:52:27.122Z,8.63
2019-01-06T17:55:31.532Z,9.23
2019-01-06T17:58:23.538Z,9.50
2019-01-06T18:01:12.574Z,9.20
2019-01-06T18:04:13.815Z,9.63
2019-01-06T18:07:18.681Z,8.77
2019-01-06T18:10:11.249Z,9.00
2019-01-06T18:13:12.595Z,9.37
2019-01-06T18:16:05.521Z,9.73
2019-01-06T18:19:10.266Z,9.37
2019-01-06T18:21:59.651Z,8.70
2019-01-06T18:24:47.773Z,9.47
2019-01-06T18:27:35.651Z,10.33
2019-01-06T18:30:32.611Z,9.60
2019-01-06T18:33:37.012Z,10.17
2019-01-06T18:36:25.099Z,10.27
2019-01-06T18:39:20.926Z,9.67
2019-01-06T18:42:08.544Z,10.60
2019-01-06T18:45:16.094Z,8.40
2019-01-06T18:48:04.239Z,10.13
2019-01-06T18:51:06.117Z,10.03
2019-01-06T18:53:54.323Z,9.50
2019-01-06T18:56:43.683Z,10.67
2019-01-06T18:59:42.156Z,11.17
2019-01-06T19:02:31.871Z,10.40
2019-01-06T19:05:20.491Z,10.77
2019-01-06T19:08:08.753Z,9.50
2019-01-06T19:11:04.866Z,10.43
2019-01-06T19:13:53.495Z,10.50
2019-01-06T19:17:02.505Z,11.50
2019-01-06T19:20:06.924Z,10.60
2019-01-06T19:23:05.533Z,10.37
2019-01-06T19:25:53.645Z,11.50
2019-01-06T19:28:46.080Z,11.33
2019-01-06T19:31:44.623Z,10.67
2019-01-06T19:34:33.649Z,11.87
2019-01-06T19:37:23.772Z,11.80
2019-01-06T19:40:11.654Z,12.03
2019-01-06T19:42:59.637Z,12.50
2019-01-06T19:45:49.234Z,11.50
2019-01-06T19:48:53.596Z,11.33
2019-01-06T19:52:01.233Z,11.13
2019-01-06T19:54:50.512Z,11.90
2019-01-06T19:57:46.742Z,13.73
2019-01-06T20:00:45.941Z,13.00
2019-01-06T20:03:42.708Z,15.07
2019-01-06T20:06:30.988Z,12.60
2019-01-06T20:09:32.653Z,13.20
2019-01-06T20:12:20.142Z,12.77
2019-01-06T20:15:06.982Z,13.67
2019-01-06T20:17:49.372Z,12.90
2019-01-06T20:20:37.512Z,12.83
2019-01-06T20:23:37.799Z,13.70
2019-01-06T20:26:30.351Z,13.07
2019-01-06T20:29:18.898Z,12.67
2019-01-06T20:32:06.805Z,11.20
2019-01-06T20:34:56.930Z,12.57
2019-01-06T20:37:49.310Z,12.57
2019-01-06T20:40:44.712Z,13.90
2019-01-06T20:43:34.152Z,12.47
2019-01-06T20:46:41.591Z,13.60
2019-01-06T20:49:32.326Z,12.30
2019-01-06T20:52:20.554Z,13.83
2019-01-06T20:55:15.675Z,14.17
2019-01-06T20:58:04.892Z,13.90
2019-01-06T21:00:52.748Z,14.40
2019-01-06T21:03:42.001Z,14.33
2019-01-06T21:06:29.886Z,13.37
2019-01-06T21:09:27.962Z,13.70
2019-01-06T21:12:16.137Z,13.57
2019-01-06T21:15:03.961Z,14.00
2019-01-06T21:17:56.014Z,14.87
2019-01-06T21:20:48.515Z,14.63
2019-01-06T21:23:56.279Z,14.20
2019-01-06T21:26:44.484Z,14.97
2019-01-06T21:29:33.391Z,15.23
2019-01-06T21:32:23.020Z,14.50
2019-01-06T21:35:18.613Z,14.07
2019-01-06T21:38:08.318Z,15.13
2019-01-06T21:41:06.547Z,14.80
2019-01-06T21:43:54.416Z,14.57
2019-01-06T21:46:42.386Z,15.13
2019-01-06T21:49:30.625Z,15.17
2019-01-06T21:52:10.311Z,15.77
2019-01-06T21:54:58.343Z,15.53
2019-01-06T21:57:46.036Z,15.13
2019-01-06T22:00:40.905Z,15.03
2019-01-06T22:03:27.130Z,15.07
2019-01-06T22:06:23.881Z,15.80
2019-01-06T22:09:15.933Z,15.13
2019-01-06T22:12:03.707Z,15.23
2019-01-06T22:14:59.174Z,15.57
2019-01-06T22:17:47.291Z,13.80
2019-01-06T22:20:37.155Z,15.87
2019-01-06T22:23:22.587Z,15.43
2019-01-06T22:26:11.530Z,16.43
2019-01-06T22:29:16.085Z,15.07
2019-01-06T22:32:19.393Z,16.20
2019-01-06T22:35:07.395Z,16.03
2019-01-06T22:37:59.735Z,17.07
2019-01-06T22:40:46.865Z,16.00
2019-01-06T22:43:45.199Z,16.80
2019-01-06T22:46:27.859Z,16.60
2019-01-06T22:49:12.158Z,16.90
2019-01-06T22:52:05.987Z,17.30
2019-01-06T22:54:58.311Z,16.43
2019-01-06T22:57:46.091Z,17.83
2019-01-06T23:01:06.747Z,17.90
2019-01-06T23:03:56.271Z,17.03
2019-01-06T23:06:54.399Z,17.40
2019-01-06T23:09:50.658Z,17.53
2019-01-06T23:12:39.478Z,18.63
2019-01-06T23:15:30.905Z,19.37
2019-01-06T23:18:26.269Z,18.23
2019-01-06T23:21:14.524Z,17.77
2019-01-06T23:24:02.590Z,16.73
2019-01-06T23:26:49.575Z,17.60
2019-01-06T23:29:50.186Z,17.20
2019-01-06T23:32:53.314Z,18.27
2019-01-06T23:35:39.447Z,17.63
2019-01-06T23:38:27.699Z,17.77
2019-01-06T23:41:12.805Z,18.63
2019-01-06T23:43:59.598Z,16.60
2019-01-06T23:46:48.856Z,17.07
2019-01-06T23:49:38.194Z,16.60
2019-01-06T23:52:33.660Z,17.00
2019-01-06T23:55:21.724Z,17.07
2019-01-06T23:58:09.816Z,17.10
